createdAt,value
2019-06-27T00:01:46.600Z,19.40
2019-06-27T00:04:15.437Z,19.30
2019-06-27T00:06:44.202Z,19.20
2019-06-27T00:09:13.515Z,19.20
2019-06-27T00:11:42.775Z,19.20
2019-06-27T00:14:11.752Z,19.10
2019-06-27T00:16:41.004Z,19.10
2019-06-27T00:19:09.974Z,19.00
2019-06-27T00:21:39.063Z,19.00
2019-06-27T00:24:08.534Z,19.00
2019-06-27T00:26:37.311Z,18.90
2019-06-27T00:29:06.551Z,18.90
2019-06-27T00:31:36.068Z,18.80
2019-06-27T00:34:05.162Z,18.70
2019-06-27T00:36:34.147Z,18.70
2019-06-27T00:39:03.254Z,18.60
2019-06-27T00:41:32.584Z,18.50
2019-06-27T00:44:01.449Z,18.50
2019-06-27T00:46:30.514Z,18.50
2019-06-27T00:48:59.977Z,18.50
2019-06-27T00:51:29.263Z,18.40
2019-06-27T00:53:59.725Z,18.40
2019-06-27T00:56:28.515Z,18.40
2019-06-27T00:58:59.819Z,18.40
2019-06-27T01:01:30.180Z,18.40
2019-06-27T01:03:59.579Z,18.40
2019-06-27T01:06:28.675Z,18.30
2019-06-27T01:08:57.895Z,18.30
2019-06-27T01:11:26.631Z,18.30
2019-06-27T01:13:55.390Z,18.20
2019-06-27T01:16:24.834Z,18.10
2019-06-27T01:18:54.448Z,18.10
2019-06-27T01:21:23.676Z,18.20
2019-06-27T01:23:52.953Z,18.10
2019-06-27T01:26:22.491Z,18.20
2019-06-27T01:28:51.503Z,18.10
2019-06-27T01:31:20.581Z,18.10
2019-06-27T01:33:49.446Z,18.00
2019-06-27T01:36:18.786Z,18.00
2019-06-27T01:38:48.050Z,17.90
2019-06-27T01:41:17.064Z,17.90
2019-06-27T01:43:46.318Z,18.00
2019-06-27T01:46:15.342Z,17.90
2019-06-27T01:48:44.331Z,18.00
2019-06-27T01:51:13.346Z,18.00
2019-06-27T01:53:42.361Z,18.00
2019-06-27T01:56:11.614Z,18.00
2019-06-27T01:58:40.492Z,18.00
2019-06-27T02:01:09.488Z,18.00
2019-06-27T02:03:38.338Z,17.90
2019-06-27T02:06:07.183Z,18.00
2019-06-27T02:08:36.266Z,18.00
2019-06-27T02:11:05.974Z,18.10
2019-06-27T02:13:35.046Z,18.10
2019-06-27T02:16:03.872Z,18.10
2019-06-27T02:18:32.970Z,18.10
2019-06-27T02:21:01.973Z,18.10
2019-06-27T02:23:30.726Z,18.10
2019-06-27T02:25:59.742Z,18.10
2019-06-27T02:28:28.730Z,18.10
2019-06-27T02:30:57.494Z,18.10
2019-06-27T02:33:26.740Z,18.00
2019-06-27T02:35:56.144Z,18.00
2019-06-27T02:38:25.247Z,18.00
2019-06-27T02:40:58.515Z,18.00
2019-06-27T02:43:25.041Z,18.00
2019-06-27T02:45:53.784Z,18.00
2019-06-27T02:48:22.807Z,18.00
2019-06-27T02:50:51.972Z,18.10
2019-06-27T02:53:20.988Z,18.00
2019-06-27T02:55:49.983Z,17.90
2019-06-27T02:58:29.821Z,17.90
2019-06-27T03:00:49.577Z,17.80
2019-06-27T03:03:18.574Z,17.80
2019-06-27T03:05:47.403Z,17.70
2019-06-27T03:08:16.760Z,17.70
2019-06-27T03:10:46.215Z,17.70
2019-06-27T03:13:15.020Z,17.60
2019-06-27T03:15:44.036Z,17.60
2019-06-27T03:18:13.033Z,17.60
2019-06-27T03:20:42.116Z,17.60
2019-06-27T03:23:11.213Z,17.60
2019-06-27T03:25:40.247Z,17.60
2019-06-27T03:28:09.590Z,17.50
2019-06-27T03:30:38.613Z,17.50
2019-06-27T03:33:07.997Z,17.60
2019-06-27T03:35:37.341Z,17.60
2019-06-27T03:38:06.503Z,17.70
2019-06-27T03:40:35.751Z,17.70
2019-06-27T03:43:04.771Z,17.70
2019-06-27T03:45:34.276Z,17.70
2019-06-27T03:48:03.526Z,17.70
2019-06-27T03:50:32.619Z,17.70
2019-06-27T03:53:01.362Z,17.70
2019-06-27T03:55:30.229Z,17.70
2019-06-27T03:57:59.283Z,17.70
2019-06-27T04:00:32.540Z,17.70
2019-06-27T04:03:01.826Z,17.70
2019-06-27T04:05:30.836Z,17.70
2019-06-27T04:07:59.910Z,17.70
2019-06-27T04:10:28.884Z,17.70
2019-06-27T04:12:58.212Z,17.70
2019-06-27T04:15:27.497Z,17.60
2019-06-27T04:17:56.661Z,17.60
2019-06-27T04:20:25.858Z,17.60
2019-06-27T04:22:54.594Z,17.50
2019-06-27T04:25:23.599Z,17.50
2019-06-27T04:27:52.620Z,17.50
2019-06-27T04:30:21.797Z,17.50
2019-06-27T04:32:50.907Z,17.50
2019-06-27T04:35:20.391Z,17.50
2019-06-27T04:37:49.407Z,17.50
2019-06-27T04:40:18.723Z,17.40
2019-06-27T04:42:47.592Z,17.40
2019-06-27T04:45:16.678Z,17.40
2019-06-27T04:47:45.407Z,17.50
2019-06-27T04:50:14.321Z,17.40
2019-06-27T04:52:43.079Z,17.40
2019-06-27T04:55:11.799Z,17.40
2019-06-27T04:57:40.558Z,17.40
2019-06-27T05:00:09.666Z,17.40
2019-06-27T05:02:38.726Z,17.30
2019-06-27T05:05:07.634Z,17.30
2019-06-27T05:07:37.142Z,17.30
2019-06-27T05:10:06.451Z,17.40
2019-06-27T05:12:35.407Z,17.40
2019-06-27T05:15:04.346Z,17.40
2019-06-27T05:17:33.341Z,17.50
2019-06-27T05:20:03.462Z,17.60
2019-06-27T05:22:32.569Z,17.70
2019-06-27T05:25:01.689Z,17.70
2019-06-27T05:27:30.778Z,17.80
2019-06-27T05:30:09.576Z,17.80
2019-06-27T05:32:30.270Z,17.90
2019-06-27T05:34:59.298Z,17.90
2019-06-27T05:37:28.310Z,17.90
2019-06-27T05:39:57.047Z,18.00
2019-06-27T05:42:25.779Z,18.00
2019-06-27T05:44:54.707Z,18.00
2019-06-27T05:47:24.004Z,18.10
2019-06-27T05:49:53.298Z,18.10
2019-06-27T05:52:22.613Z,18.10
2019-06-27T05:54:53.066Z,18.10
2019-06-27T05:57:22.490Z,18.10
2019-06-27T05:59:51.402Z,18.00
2019-06-27T06:02:20.709Z,18.00
2019-06-27T06:04:50.545Z,18.00
2019-06-27T06:07:19.602Z,18.00
2019-06-27T06:09:48.598Z,18.00
2019-06-27T06:12:17.873Z,18.10
2019-06-27T06:14:47.131Z,18.10
2019-06-27T06:17:16.426Z,18.10
2019-06-27T06:19:45.257Z,18.10
2019-06-27T06:22:14.350Z,18.20
2019-06-27T06:24:43.346Z,18.20
2019-06-27T06:27:12.327Z,18.30
2019-06-27T06:29:41.094Z,18.40
2019-06-27T06:32:10.415Z,18.50
2019-06-27T06:34:40.500Z,18.60
2019-06-27T06:37:09.818Z,18.60
2019-06-27T06:39:38.847Z,18.60
2019-06-27T06:42:08.157Z,18.60
2019-06-27T06:44:36.903Z,18.60
2019-06-27T06:47:05.795Z,18.60
2019-06-27T06:49:34.521Z,18.60
2019-06-27T06:52:03.286Z,18.70
2019-06-27T06:54:32.820Z,18.80
2019-06-27T06:57:01.567Z,19.00
2019-06-27T06:59:30.612Z,19.10
2019-06-27T07:01:59.672Z,19.20
2019-06-27T07:04:28.667Z,19.10
2019-06-27T07:06:57.783Z,19.20
2019-06-27T07:09:26.557Z,19.30
2019-06-27T07:11:55.987Z,19.30
2019-06-27T07:14:28.379Z,19.40
2019-06-27T07:16:57.390Z,19.40
2019-06-27T07:19:26.155Z,19.50
2019-06-27T07:21:56.106Z,19.70
2019-06-27T07:24:25.102Z,19.90
2019-06-27T07:26:53.901Z,20.00
2019-06-27T07:29:22.689Z,20.00
2019-06-27T07:31:53.278Z,20.10
2019-06-27T07:34:22.260Z,20.30
2019-06-27T07:36:53.734Z,20.50
2019-06-27T07:39:23.096Z,20.70
2019-06-27T07:41:52.250Z,20.90
2019-06-27T07:44:21.275Z,21.10
2019-06-27T07:46:50.382Z,21.20
2019-06-27T07:49:19.454Z,21.30
2019-06-27T07:51:48.482Z,21.30
2019-06-27T07:54:17.909Z,21.40
2019-06-27T07:56:47.911Z,21.40
2019-06-27T07:59:17.049Z,21.40
2019-06-27T08:01:46.099Z,21.50
2019-06-27T08:04:16.815Z,21.70
2019-06-27T08:06:45.844Z,21.90
2019-06-27T08:09:15.028Z,21.90
2019-06-27T08:11:43.767Z,22.00
2019-06-27T08:14:12.783Z,22.10
2019-06-27T08:16:42.014Z,22.20
2019-06-27T08:19:10.774Z,22.50
2019-06-27T08:21:39.778Z,22.60
2019-06-27T08:24:09.092Z,22.70
2019-06-27T08:26:38.662Z,22.80
2019-06-27T08:29:14.589Z,22.90
2019-06-27T08:31:51.373Z,22.80
2019-06-27T08:34:16.098Z,22.90
2019-06-27T08:36:45.119Z,23.00
2019-06-27T08:39:14.385Z,23.20
2019-06-27T08:41:43.425Z,23.30
2019-06-27T08:44:12.514Z,23.30
2019-06-27T08:46:42.065Z,23.50
2019-06-27T08:49:11.679Z,23.60
2019-06-27T08:51:43.959Z,23.60
2019-06-27T08:54:13.657Z,23.70
2019-06-27T08:56:44.807Z,23.60
2019-06-27T08:59:14.066Z,23.40
2019-06-27T10:15:05.309Z,26.30
2019-06-27T10:17:34.571Z,25.90
2019-06-27T10:20:03.987Z,25.60
2019-06-27T10:22:32.898Z,25.70
2019-06-27T10:25:01.886Z,25.80
2019-06-27T10:27:30.721Z,26.10
2019-06-27T10:29:59.514Z,26.40
2019-06-27T10:32:28.508Z,26.70
2019-06-27T10:34:57.265Z,26.70
2019-06-27T10:37:26.010Z,26.40
2019-06-27T10:39:54.810Z,26.50
2019-06-27T10:42:23.573Z,26.60
2019-06-27T10:44:52.592Z,26.80
2019-06-27T10:47:21.620Z,27.00
2019-06-27T10:49:50.625Z,27.00
2019-06-27T10:52:19.708Z,27.00
2019-06-27T10:54:48.707Z,27.20
2019-06-27T10:57:17.985Z,27.50
2019-06-27T10:59:46.727Z,27.70
2019-06-27T11:02:15.913Z,27.90
2019-06-27T11:04:44.692Z,28.00
2019-06-27T11:07:13.432Z,28.20
2019-06-27T11:09:42.928Z,28.30
2019-06-27T11:12:12.270Z,28.50
2019-06-27T11:14:41.139Z,28.60
2019-06-27T11:17:10.230Z,28.70
2019-06-27T11:19:51.837Z,28.90
2019-06-27T11:22:09.845Z,29.10
2019-06-27T11:24:38.906Z,29.10
2019-06-27T11:27:08.380Z,29.30
2019-06-27T11:29:37.455Z,29.30
2019-06-27T11:32:06.337Z,29.30
2019-06-27T11:34:35.340Z,29.60
2019-06-27T11:37:04.272Z,29.70
2019-06-27T11:39:33.302Z,29.80
2019-06-27T11:42:02.406Z,30.00
2019-06-27T11:44:31.432Z,30.10
2019-06-27T11:47:00.268Z,30.30
2019-06-27T11:49:29.514Z,30.40
2019-06-27T11:51:58.528Z,30.60
2019-06-27T11:54:27.283Z,30.70
2019-06-27T11:56:56.693Z,30.90
2019-06-27T11:59:25.513Z,30.90
2019-06-27T12:01:55.046Z,30.80
2019-06-27T12:04:24.295Z,30.70
2019-06-27T12:06:53.406Z,30.80
2019-06-27T12:09:22.219Z,30.80
2019-06-27T12:11:51.217Z,30.90
2019-06-27T12:14:20.425Z,31.00
2019-06-27T12:16:49.207Z,31.10
2019-06-27T12:19:18.100Z,31.20
2019-06-27T12:21:47.357Z,31.20
2019-06-27T12:24:16.170Z,31.20
2019-06-27T12:26:44.967Z,31.20
2019-06-27T12:29:14.609Z,31.20
2019-06-27T12:31:43.510Z,31.10
2019-06-27T12:34:12.623Z,31.20
2019-06-27T12:36:41.375Z,31.30
2019-06-27T12:39:10.512Z,31.40
2019-06-27T12:41:39.249Z,31.40
2019-06-27T12:44:09.539Z,31.50
2019-06-27T12:46:38.759Z,31.50
2019-06-27T12:49:07.615Z,31.60
2019-06-27T12:51:36.392Z,31.70
2019-06-27T12:54:05.243Z,31.80
2019-06-27T12:56:34.618Z,31.80
2019-06-27T12:59:03.673Z,31.80
2019-06-27T13:01:32.649Z,31.80
2019-06-27T13:04:01.483Z,31.90
2019-06-27T13:06:30.528Z,31.80
2019-06-27T13:08:59.870Z,31.80
2019-06-27T13:11:29.177Z,32.00
2019-06-27T13:13:58.182Z,32.10
2019-06-27T13:16:30.919Z,32.10
2019-06-27T13:18:59.038Z,32.20
2019-06-27T13:21:27.791Z,32.30
2019-06-27T13:23:56.785Z,32.40
2019-06-27T13:26:25.826Z,32.50
2019-06-27T13:28:54.900Z,32.50
2019-06-27T13:31:24.130Z,32.50
2019-06-27T13:33:53.419Z,32.60
2019-06-27T13:36:22.188Z,32.70
2019-06-27T13:38:51.306Z,32.70
2019-06-27T13:41:20.567Z,32.50
2019-06-27T13:43:49.577Z,32.40
2019-06-27T13:46:18.506Z,32.20
2019-06-27T13:48:47.440Z,32.30
2019-06-27T13:51:16.276Z,32.30
2019-06-27T13:53:45.299Z,32.20
2019-06-27T13:56:14.342Z,32.20
2019-06-27T13:58:43.194Z,32.20
2019-06-27T14:01:12.753Z,32.30
2019-06-27T14:03:49.131Z,32.40
2019-06-27T14:06:13.404Z,32.40
2019-06-27T14:08:42.279Z,32.30
2019-06-27T14:11:11.755Z,32.20
2019-06-27T14:13:44.845Z,32.40
2019-06-27T14:16:14.262Z,32.60
2019-06-27T14:18:43.025Z,32.70
2019-06-27T14:21:13.441Z,32.90
2019-06-27T14:23:42.683Z,33.10
2019-06-27T14:26:11.843Z,33.20
2019-06-27T14:28:40.918Z,33.10
2019-06-27T14:31:09.694Z,33.20
2019-06-27T14:33:38.705Z,33.30
2019-06-27T14:36:07.791Z,33.40
2019-06-27T14:38:38.001Z,33.50
2019-06-27T14:41:06.998Z,33.60
2019-06-27T14:43:37.947Z,33.70
2019-06-27T14:46:06.813Z,33.90
2019-06-27T14:48:35.887Z,33.80
2019-06-27T14:51:04.728Z,33.70
2019-06-27T14:53:33.565Z,33.80
2019-06-27T14:56:02.571Z,33.80
2019-06-27T14:58:33.547Z,33.90
2019-06-27T15:01:05.777Z,33.80
2019-06-27T15:03:32.925Z,33.80
2019-06-27T15:06:02.247Z,33.70
2019-06-27T15:08:31.400Z,33.40
2019-06-27T15:11:00.186Z,33.20
2019-06-27T15:13:29.430Z,33.10
2019-06-27T15:16:11.131Z,33.00
2019-06-27T15:18:29.315Z,33.10
2019-06-27T15:20:58.186Z,33.10
2019-06-27T15:23:29.180Z,33.20
2019-06-27T15:25:58.434Z,33.20
2019-06-27T15:28:27.498Z,33.20
2019-06-27T15:30:56.314Z,33.20
2019-06-27T15:33:26.216Z,33.20
2019-06-27T15:35:55.594Z,33.20
2019-06-27T15:38:24.594Z,33.20
2019-06-27T15:40:55.494Z,33.20
2019-06-27T15:43:24.567Z,33.20
2019-06-27T15:45:53.382Z,33.10
2019-06-27T15:48:22.454Z,33.10
2019-06-27T15:50:51.198Z,33.00
2019-06-27T15:53:20.031Z,32.80
2019-06-27T15:55:49.281Z,32.80
2019-06-27T15:58:18.035Z,32.60
2019-06-27T16:00:47.622Z,32.50
2019-06-27T16:03:16.508Z,32.40
2019-06-27T16:05:45.471Z,32.40
2019-06-27T16:08:14.614Z,32.40
2019-06-27T16:10:43.423Z,32.40
2019-06-27T16:13:12.884Z,32.40
2019-06-27T16:15:41.783Z,32.50
2019-06-27T16:18:10.794Z,32.50
2019-06-27T16:20:39.678Z,32.40
2019-06-27T16:23:08.954Z,32.30
2019-06-27T16:25:37.742Z,32.30
2019-06-27T16:28:06.615Z,32.20
2019-06-27T16:30:36.397Z,31.90
2019-06-27T16:33:06.867Z,31.80
2019-06-27T16:35:36.221Z,31.70
2019-06-27T16:38:04.981Z,31.60
2019-06-27T16:40:33.899Z,31.60
2019-06-27T16:43:02.689Z,31.50
2019-06-27T16:45:31.674Z,31.40
2019-06-27T16:48:00.927Z,31.50
2019-06-27T16:50:29.710Z,31.50
2019-06-27T16:52:58.637Z,31.40
2019-06-27T16:55:27.607Z,31.30
2019-06-27T16:57:56.601Z,31.10
2019-06-27T17:00:25.760Z,31.10
2019-06-27T17:02:54.811Z,31.00
2019-06-27T17:05:23.578Z,30.90
2019-06-27T17:07:52.694Z,30.80
2019-06-27T17:10:21.598Z,30.60
2019-06-27T17:12:50.610Z,30.40
2019-06-27T17:15:24.749Z,30.10
2019-06-27T17:17:54.038Z,29.90
2019-06-27T17:20:22.843Z,29.70
2019-06-27T17:22:52.401Z,29.40
2019-06-27T17:25:21.389Z,29.30
2019-06-27T17:27:50.806Z,29.10
2019-06-27T17:30:20.494Z,28.80
2019-06-27T17:32:49.776Z,28.60
2019-06-27T17:35:19.292Z,28.40
2019-06-27T17:37:48.791Z,28.10
2019-06-27T17:40:18.168Z,27.90
2019-06-27T17:42:46.930Z,27.70
2019-06-27T17:45:16.214Z,27.40
2019-06-27T17:47:45.129Z,27.20
2019-06-27T17:50:14.260Z,26.90
2019-06-27T17:52:43.257Z,26.70
2019-06-27T17:55:12.128Z,26.40
2019-06-27T17:57:41.090Z,26.10
2019-06-27T18:00:10.675Z,25.80
2019-06-27T18:02:39.579Z,25.60
2019-06-27T18:05:08.705Z,25.40
2019-06-27T18:07:38.013Z,25.30
2019-06-27T18:10:07.047Z,25.10
2019-06-27T18:12:36.148Z,25.00
2019-06-27T18:15:05.125Z,24.80
2019-06-27T18:17:34.346Z,24.60
2019-06-27T18:20:03.263Z,24.40
2019-06-27T18:22:32.942Z,24.30
2019-06-27T18:25:01.989Z,24.20
2019-06-27T18:27:30.792Z,24.20
2019-06-27T18:29:59.626Z,24.10
2019-06-27T18:32:28.440Z,24.00
2019-06-27T18:34:57.483Z,24.10
2019-06-27T18:37:29.939Z,23.90
2019-06-27T18:39:56.902Z,23.90
2019-06-27T18:42:26.223Z,23.80
2019-06-27T18:44:58.332Z,23.70
2019-06-27T18:47:27.374Z,23.60
2019-06-27T18:49:56.864Z,23.50
2019-06-27T18:52:26.551Z,23.40
2019-06-27T18:54:55.722Z,23.30
2019-06-27T18:57:24.769Z,23.20
2019-06-27T18:59:53.941Z,23.00
2019-06-27T19:02:23.250Z,23.00
2019-06-27T19:04:52.001Z,22.90
2019-06-27T19:07:21.006Z,22.70
2019-06-27T19:09:50.302Z,22.60
2019-06-27T19:12:19.571Z,22.50
2019-06-27T19:14:48.943Z,22.40
2019-06-27T19:17:18.189Z,22.30
2019-06-27T19:19:49.939Z,22.20
2019-06-27T19:22:36.426Z,22.20
2019-06-27T19:25:10.047Z,22.00
2019-06-27T19:27:38.965Z,21.90
2019-06-27T19:30:08.666Z,21.70
2019-06-27T19:32:37.986Z,21.60
2019-06-27T19:35:07.027Z,21.50
2019-06-27T19:37:35.767Z,21.40
2019-06-27T19:40:07.142Z,21.30
2019-06-27T19:42:36.166Z,21.10
2019-06-27T19:45:05.376Z,21.00
2019-06-27T19:47:34.607Z,21.00
2019-06-27T19:50:03.648Z,20.90
2019-06-27T19:52:32.637Z,20.90
2019-06-27T19:55:12.210Z,20.80
2019-06-27T19:57:41.803Z,20.80
2019-06-27T20:00:11.139Z,20.70
2019-06-27T20:02:40.225Z,20.70
2019-06-27T20:05:09.147Z,20.60
2019-06-27T20:07:52.160Z,20.60
2019-06-27T20:10:21.688Z,20.50
2019-06-27T20:12:50.799Z,20.30
2019-06-27T20:15:19.724Z,20.20
2019-06-27T20:17:48.921Z,20.00
2019-06-27T20:20:17.955Z,19.90
2019-06-27T20:22:46.842Z,19.70
2019-06-27T20:25:15.690Z,19.70
2019-06-27T20:27:44.662Z,19.60
2019-06-27T20:30:13.822Z,19.50
2019-06-27T20:32:42.855Z,19.40
2019-06-27T20:35:11.862Z,19.40
2019-06-27T20:37:41.059Z,19.40
2019-06-27T20:40:10.338Z,19.30
2019-06-27T20:42:39.576Z,19.30
2019-06-27T20:45:09.409Z,19.30
2019-06-27T20:47:38.162Z,19.30
2019-06-27T20:50:07.387Z,19.30
2019-06-27T20:52:36.615Z,19.30
2019-06-27T20:55:05.844Z,19.30
2019-06-27T20:57:35.972Z,19.20
2019-06-27T21:00:05.418Z,19.20
2019-06-27T21:02:34.241Z,19.10
2019-06-27T21:05:03.086Z,19.00
2019-06-27T21:07:32.152Z,19.00
2019-06-27T21:10:01.412Z,18.90
2019-06-27T21:12:30.230Z,18.90
2019-06-27T21:14:59.074Z,18.80
2019-06-27T21:17:27.814Z,18.70
2019-06-27T21:19:56.580Z,18.60
2019-06-27T21:22:25.326Z,18.50
2019-06-27T21:24:54.082Z,18.50
2019-06-27T21:27:22.858Z,18.50
2019-06-27T21:29:51.847Z,18.40
2019-06-27T21:32:31.020Z,18.40
2019-06-27T21:34:52.084Z,18.40
2019-06-27T21:37:21.123Z,18.40
2019-06-27T21:39:49.862Z,18.30
2019-06-27T21:42:19.277Z,18.20
2019-06-27T21:44:48.383Z,18.20
2019-06-27T21:47:17.357Z,18.20
2019-06-27T21:49:46.338Z,18.20
2019-06-27T21:52:15.116Z,18.10
2019-06-27T21:54:45.255Z,18.00
2019-06-27T21:57:14.477Z,18.00
2019-06-27T21:59:43.367Z,17.90
2019-06-27T22:02:12.535Z,17.90
2019-06-27T22:04:41.424Z,17.80
2019-06-27T22:07:10.269Z,17.80
2019-06-27T22:09:39.404Z,17.80
2019-06-27T22:12:08.798Z,17.70
2019-06-27T22:14:37.927Z,17.60
2019-06-27T22:17:06.726Z,17.60
2019-06-27T22:19:35.482Z,17.50
2019-06-27T22:22:04.399Z,17.50
2019-06-27T22:24:33.626Z,17.40
2019-06-27T22:27:02.700Z,17.20
2019-06-27T22:29:31.990Z,17.10
2019-06-27T22:32:01.007Z,17.00
2019-06-27T22:34:30.265Z,16.90
2019-06-27T22:37:03.677Z,16.90
2019-06-27T22:39:52.013Z,16.90
2019-06-27T22:42:38.543Z,16.90
2019-06-27T22:45:25.833Z,16.80
2019-06-27T22:48:12.534Z,16.80
2019-06-27T22:51:05.917Z,16.70
2019-06-27T22:53:39.819Z,16.60
2019-06-27T22:56:08.850Z,16.50
2019-06-27T22:58:37.866Z,16.40
2019-06-27T23:01:07.561Z,16.40
2019-06-27T23:03:36.890Z,16.50
2019-06-27T23:06:05.697Z,16.40
2019-06-27T23:08:34.602Z,16.40
2019-06-27T23:11:03.606Z,16.40
2019-06-27T23:13:32.427Z,16.40
2019-06-27T23:16:01.186Z,16.40
2019-06-27T23:18:30.215Z,16.30
2019-06-27T23:20:59.247Z,16.20
2019-06-27T23:23:28.702Z,16.20
2019-06-27T23:25:57.908Z,16.10
2019-06-27T23:28:26.661Z,16.10
2019-06-27T23:30:55.679Z,16.00
2019-06-27T23:33:24.501Z,16.00
2019-06-27T23:35:53.266Z,16.00
2019-06-27T23:38:22.005Z,16.00
2019-06-27T23:40:50.835Z,15.90
2019-06-27T23:43:20.171Z,15.90
2019-06-27T23:45:49.149Z,15.80
2019-06-27T23:48:18.192Z,15.80
2019-06-27T23:50:47.518Z,15.80
2019-06-27T23:53:16.550Z,15.60
2019-06-27T23:55:45.384Z,15.60
2019-06-27T23:58:14.642Z,15.60
